createdAt,value
2022-10-17T00:02:50.048Z,101514.72
2022-10-17T00:05:54.305Z,101517.13
2022-10-17T00:08:57.251Z,101509.00
2022-10-17T00:12:00.332Z,101512.75
2022-10-17T00:15:07.535Z,101517.91
2022-10-17T00:18:10.450Z,101529.38
2022-10-17T00:21:18.770Z,101515.38
2022-10-17T00:24:21.697Z,101514.34
2022-10-17T00:27:24.933Z,101497.72
2022-10-17T00:30:28.152Z,101498.25
2022-10-17T00:33:31.786Z,101517.38
2022-10-17T00:36:36.228Z,101527.31
2022-10-17T00:39:39.643Z,101524.16
2022-10-17T00:42:42.853Z,101520.28
2022-10-17T00:45:45.824Z,101516.19
2022-10-17T00:48:50.981Z,101510.63
2022-10-17T00:51:58.659Z,101514.91
2022-10-17T00:55:05.856Z,101508.03
2022-10-17T00:58:08.939Z,101509.59
2022-10-17T01:01:12.090Z,101515.88
2022-10-17T01:04:18.549Z,101506.88
2022-10-17T01:07:23.739Z,101511.72
2022-10-17T01:10:35.234Z,101503.78
2022-10-17T01:13:47.320Z,101492.19
2022-10-17T01:17:00.085Z,101483.81
2022-10-17T01:20:49.473Z,101479.13
2022-10-17T01:24:26.340Z,101488.22
2022-10-17T01:27:50.619Z,101478.28
2022-10-17T01:31:04.304Z,101480.53
2022-10-17T01:34:15.757Z,101475.91
2022-10-17T01:37:26.723Z,101475.38
2022-10-17T01:40:38.731Z,101474.00
2022-10-17T01:43:45.893Z,101473.16
2022-10-17T01:46:52.393Z,101466.56
2022-10-17T01:50:00.351Z,101466.56
2022-10-17T01:53:10.360Z,101463.41
2022-10-17T01:56:16.313Z,101461.97
2022-10-17T01:59:26.725Z,101458.31
2022-10-17T02:02:32.675Z,101449.81
2022-10-17T02:05:40.450Z,101449.19
2022-10-17T02:08:46.130Z,101447.53
2022-10-17T02:12:05.064Z,101445.66
2022-10-17T02:15:26.139Z,101453.19
2022-10-17T02:19:00.582Z,101443.56
2022-10-17T02:22:17.427Z,101442.75
2022-10-17T02:25:32.472Z,101438.78
2022-10-17T02:28:45.668Z,101442.88
2022-10-17T02:31:52.776Z,101438.81
2022-10-17T02:34:59.466Z,101440.56
2022-10-17T02:38:06.516Z,101432.31
2022-10-17T02:41:15.566Z,101432.25
2022-10-17T02:44:19.204Z,101425.66
2022-10-17T02:47:27.745Z,101429.00
2022-10-17T02:50:44.710Z,101429.00
2022-10-17T02:53:58.877Z,101429.34
2022-10-17T02:57:09.056Z,101427.75
2022-10-17T03:00:15.798Z,101431.31
2022-10-17T03:03:25.490Z,101428.69
2022-10-17T03:06:30.129Z,101430.13
2022-10-17T03:09:33.061Z,101421.44
2022-10-17T03:12:36.059Z,101429.22
2022-10-17T03:15:39.383Z,101414.78
2022-10-17T03:18:45.389Z,101411.66
2022-10-17T03:21:52.631Z,101422.09
2022-10-17T03:24:55.816Z,101429.09
2022-10-17T03:28:00.467Z,101427.97
2022-10-17T03:31:08.802Z,101419.06
2022-10-17T03:34:12.751Z,101407.25
2022-10-17T03:37:17.015Z,101406.84
2022-10-17T03:40:20.489Z,101392.84
2022-10-17T03:43:23.904Z,101400.16
2022-10-17T03:46:26.900Z,101397.44
2022-10-17T03:49:32.261Z,101405.41
2022-10-17T03:52:36.866Z,101398.28
2022-10-17T03:55:40.218Z,101405.59
2022-10-17T03:58:44.201Z,101398.50
2022-10-17T04:01:48.166Z,101389.59
2022-10-17T04:04:51.382Z,101389.59
2022-10-17T04:07:57.820Z,101385.53
2022-10-17T04:11:22.922Z,101382.72
2022-10-17T04:14:26.034Z,101375.59
2022-10-17T04:17:35.892Z,101374.66
2022-10-17T04:20:41.469Z,101367.97
2022-10-17T04:23:46.289Z,101367.97
2022-10-17T04:27:02.887Z,101374.66
2022-10-17T04:30:09.875Z,101373.59
2022-10-17T04:33:12.956Z,101372.44
2022-10-17T04:36:18.367Z,101372.56
2022-10-17T04:39:22.760Z,101370.38
2022-10-17T04:42:26.051Z,101374.13
2022-10-17T04:45:30.479Z,101363.56
2022-10-17T04:48:38.994Z,101369.19
2022-10-17T04:51:42.073Z,101370.69
2022-10-17T04:54:51.808Z,101369.22
2022-10-17T04:57:54.961Z,101363.66
2022-10-17T05:00:58.014Z,101362.00
2022-10-17T05:04:04.959Z,101369.66
2022-10-17T05:07:08.059Z,101366.28
2022-10-17T05:10:15.356Z,101359.81
2022-10-17T05:13:21.486Z,101361.47
2022-10-17T05:16:26.194Z,101360.44
2022-10-17T05:19:30.052Z,101360.34
2022-10-17T05:22:36.027Z,101358.97
2022-10-17T05:25:42.499Z,101371.50
2022-10-17T05:28:45.636Z,101377.78
2022-10-17T05:31:48.961Z,101371.69
2022-10-17T05:34:52.051Z,101370.44
2022-10-17T05:37:56.851Z,101365.44
2022-10-17T05:41:04.976Z,101367.00
2022-10-17T05:44:08.848Z,101367.84
2022-10-17T05:47:16.996Z,101358.97
2022-10-17T05:50:21.485Z,101363.16
2022-10-17T05:53:39.236Z,101368.91
2022-10-17T05:56:52.593Z,101367.53
2022-10-17T05:59:57.582Z,101369.84
2022-10-17T06:03:01.025Z,101372.97
2022-10-17T06:06:05.936Z,101375.91
2022-10-17T06:09:09.872Z,101366.63
2022-10-17T06:12:17.235Z,101369.22
2022-10-17T06:15:21.580Z,101373.19
2022-10-17T06:18:31.917Z,101382.59
2022-10-17T06:21:37.724Z,101386.56
2022-10-17T06:24:48.240Z,101397.84
2022-10-17T06:31:00.940Z,101384.25
2022-10-17T06:34:04.215Z,101381.31
2022-10-17T06:37:07.504Z,101385.13
2022-10-17T06:40:15.115Z,101396.38
2022-10-17T06:43:20.664Z,101393.56
2022-10-17T06:46:53.532Z,101393.81
2022-10-17T06:49:57.667Z,101388.03
2022-10-17T06:53:06.799Z,101398.19
2022-10-17T06:56:26.797Z,101394.41
2022-10-17T06:59:39.541Z,101400.28
2022-10-17T07:02:48.749Z,101391.41
2022-10-17T07:05:52.916Z,101391.19
2022-10-17T07:08:56.387Z,101386.66
2022-10-17T07:12:00.016Z,101390.97
2022-10-17T07:15:05.419Z,101394.47
2022-10-17T07:18:08.610Z,101397.25
2022-10-17T07:21:12.025Z,101404.44
2022-10-17T07:24:16.663Z,101400.41
2022-10-17T07:27:23.928Z,101396.38
2022-10-17T07:30:28.780Z,101400.69
2022-10-17T07:36:54.595Z,101409.09
2022-10-17T07:39:57.585Z,101410.78
2022-10-17T07:43:01.517Z,101406.59
2022-10-17T07:46:08.276Z,101407.25
2022-10-17T07:49:11.355Z,101408.44
2022-10-17T07:52:19.001Z,101413.94
2022-10-17T07:55:22.264Z,101413.69
2022-10-17T07:58:25.848Z,101411.69
2022-10-17T08:01:30.157Z,101422.03
2022-10-17T08:04:33.395Z,101418.56
2022-10-17T08:07:36.382Z,101433.38
2022-10-17T08:10:39.296Z,101440.78
2022-10-17T08:13:43.393Z,101459.16
2022-10-17T08:16:47.668Z,101476.41
2022-10-17T08:19:50.655Z,101498.97
2022-10-17T08:22:54.675Z,101504.66
2022-10-17T08:26:00.703Z,101527.91
2022-10-17T08:29:06.447Z,101532.84
2022-10-17T08:32:10.785Z,101558.19
2022-10-17T08:35:14.692Z,101563.28
2022-10-17T08:38:20.825Z,101575.25
2022-10-17T08:41:52.643Z,101574.47
2022-10-17T08:45:04.375Z,101580.50
2022-10-17T08:48:15.278Z,101587.84
2022-10-17T08:51:22.923Z,101591.34
2022-10-17T08:54:40.425Z,101595.59
2022-10-17T08:57:43.613Z,101597.88
2022-10-17T09:00:56.838Z,101616.56
2022-10-17T09:04:36.082Z,101618.34
2022-10-17T09:07:50.485Z,101624.78
2022-10-17T09:10:59.489Z,101628.97
2022-10-17T09:14:18.955Z,101639.84
2022-10-17T09:17:37.241Z,101638.22
2022-10-17T09:20:45.947Z,101653.25
2022-10-17T09:23:59.664Z,101662.59
2022-10-17T09:27:24.758Z,101664.69
2022-10-17T09:30:45.076Z,101680.69
2022-10-17T09:33:55.064Z,101680.50
2022-10-17T09:37:01.968Z,101685.88
2022-10-17T09:40:09.970Z,101690.97
2022-10-17T09:43:16.083Z,101690.34
2022-10-17T09:46:26.451Z,101695.00
2022-10-17T09:49:35.463Z,101699.97
2022-10-17T09:52:47.592Z,101695.19
2022-10-17T09:55:55.451Z,101701.94
2022-10-17T09:58:59.898Z,101703.75
2022-10-17T10:02:20.674Z,101702.88
2022-10-17T10:05:23.692Z,101703.69
2022-10-17T10:08:31.743Z,101708.88
2022-10-17T10:11:49.858Z,101705.56
2022-10-17T10:14:54.780Z,101704.00
2022-10-17T10:17:58.386Z,101715.44
2022-10-17T10:21:12.371Z,101717.88
2022-10-17T10:24:16.620Z,101716.75
2022-10-17T10:27:20.590Z,101717.78
2022-10-17T10:30:29.762Z,101714.16
2022-10-17T10:33:40.390Z,101722.50
2022-10-17T10:36:57.749Z,101727.31
2022-10-17T10:40:05.825Z,101734.31
2022-10-17T10:43:17.938Z,101728.19
2022-10-17T10:46:24.180Z,101729.94
2022-10-17T10:49:35.748Z,101727.13
2022-10-17T10:52:45.775Z,101724.31
2022-10-17T10:55:55.290Z,101727.16
2022-10-17T10:59:05.333Z,101719.34
2022-10-17T11:02:17.000Z,101726.13
2022-10-17T11:05:28.468Z,101721.13
2022-10-17T11:08:39.726Z,101725.91
2022-10-17T11:11:51.065Z,101731.50
2022-10-17T11:15:00.714Z,101722.75
2022-10-17T11:18:08.080Z,101721.47
2022-10-17T11:21:17.003Z,101717.09
2022-10-17T11:24:25.952Z,101707.41
2022-10-17T11:27:31.935Z,101706.72
2022-10-17T11:30:46.275Z,101710.03
2022-10-17T11:33:54.109Z,101703.16
2022-10-17T11:37:03.205Z,101709.63
2022-10-17T11:40:19.158Z,101705.50
2022-10-17T11:43:35.040Z,101705.19
2022-10-17T11:46:41.346Z,101703.75
2022-10-17T11:49:51.231Z,101699.13
2022-10-17T11:52:59.517Z,101699.34
2022-10-17T11:56:03.618Z,101702.19
2022-10-17T11:59:39.724Z,101701.63
2022-10-17T12:02:49.663Z,101696.28
2022-10-17T12:06:00.833Z,101695.75
2022-10-17T12:09:14.022Z,101692.38
2022-10-17T12:12:29.136Z,101695.97
2022-10-17T12:15:33.842Z,101690.84
2022-10-17T12:18:36.840Z,101692.25
2022-10-17T12:21:56.943Z,101694.25
2022-10-17T12:25:02.649Z,101691.03
2022-10-17T12:28:18.947Z,101682.72
2022-10-17T12:31:33.672Z,101677.56
2022-10-17T12:34:37.630Z,101685.16
2022-10-17T12:38:29.734Z,101674.66
2022-10-17T12:41:54.773Z,101677.56
2022-10-17T12:44:57.781Z,101675.72
2022-10-17T12:48:02.070Z,101664.13
2022-10-17T12:54:37.956Z,101673.03
2022-10-17T12:57:58.954Z,101675.44
2022-10-17T13:01:23.055Z,101677.69
2022-10-17T13:04:28.819Z,101664.34
2022-10-17T13:07:34.664Z,101670.97
2022-10-17T13:10:43.087Z,101657.69
2022-10-17T13:13:51.983Z,101659.09
2022-10-17T13:16:58.358Z,101656.25
2022-10-17T13:20:03.154Z,101658.72
2022-10-17T13:23:06.108Z,101667.16
2022-10-17T13:26:16.599Z,101653.66
2022-10-17T13:29:21.851Z,101656.97
2022-10-17T13:32:27.472Z,101664.13
2022-10-17T13:35:58.797Z,101669.03
2022-10-17T13:39:00.648Z,101660.25
2022-10-17T13:42:04.063Z,101656.22
2022-10-17T13:45:20.053Z,101663.16
2022-10-17T13:48:27.072Z,101659.50
2022-10-17T13:51:32.112Z,101660.06
2022-10-17T13:54:41.046Z,101652.81
2022-10-17T13:57:44.105Z,101657.41
2022-10-17T14:00:49.133Z,101660.25
2022-10-17T14:04:07.231Z,101665.16
2022-10-17T14:07:26.346Z,101668.19
2022-10-17T14:10:35.301Z,101678.25
2022-10-17T14:13:38.355Z,101671.53
2022-10-17T14:16:43.746Z,101671.91
2022-10-17T14:19:55.464Z,101668.84
2022-10-17T14:23:34.527Z,101668.31
2022-10-17T14:26:48.991Z,101677.88
2022-10-17T14:29:54.668Z,101679.19
2022-10-17T14:33:01.154Z,101681.06
2022-10-17T14:36:08.378Z,101683.50
2022-10-17T14:39:23.445Z,101677.28
2022-10-17T14:42:27.207Z,101680.81
2022-10-17T14:45:32.669Z,101686.53
2022-10-17T14:48:35.634Z,101692.19
2022-10-17T14:51:50.382Z,101691.84
2022-10-17T14:55:23.439Z,101680.16
2022-10-17T14:58:28.835Z,101672.25
2022-10-17T15:01:33.631Z,101683.78
2022-10-17T15:04:36.535Z,101682.13
2022-10-17T15:07:39.603Z,101679.09
2022-10-17T15:10:45.584Z,101681.47
2022-10-17T15:13:48.558Z,101681.44
2022-10-17T15:16:51.576Z,101674.72
2022-10-17T15:19:54.642Z,101672.38
2022-10-17T15:22:59.803Z,101667.53
2022-10-17T15:26:04.660Z,101666.53
2022-10-17T15:29:07.796Z,101674.47
2022-10-17T15:32:12.685Z,101664.84
2022-10-17T15:35:16.104Z,101667.56
2022-10-17T15:38:19.417Z,101656.72
2022-10-17T15:41:26.122Z,101655.44
2022-10-17T15:44:29.520Z,101658.28
2022-10-17T15:47:34.424Z,101656.25
2022-10-17T15:50:37.535Z,101657.97
2022-10-17T15:53:40.817Z,101658.19
2022-10-17T15:56:55.034Z,101656.50
2022-10-17T16:00:00.529Z,101658.72
2022-10-17T16:03:03.455Z,101654.66
2022-10-17T16:06:10.729Z,101658.56
2022-10-17T16:09:16.451Z,101641.53
2022-10-17T16:12:28.064Z,101636.75
2022-10-17T16:15:31.197Z,101637.94
2022-10-17T16:18:34.208Z,101642.03
2022-10-17T16:21:41.254Z,101640.94
2022-10-17T16:24:44.442Z,101638.59
2022-10-17T16:27:52.043Z,101637.56
2022-10-17T16:30:55.855Z,101628.69
2022-10-17T16:34:00.878Z,101627.84
2022-10-17T16:37:03.879Z,101635.41
2022-10-17T16:40:07.864Z,101632.00
2022-10-17T16:43:14.435Z,101625.44
2022-10-17T16:46:17.866Z,101622.09
2022-10-17T16:49:20.819Z,101622.66
2022-10-17T16:52:24.033Z,101619.19
2022-10-17T16:55:27.001Z,101613.81
2022-10-17T16:58:32.315Z,101615.88
2022-10-17T17:01:35.266Z,101614.94
2022-10-17T17:04:38.486Z,101616.19
2022-10-17T17:07:41.436Z,101614.94
2022-10-17T17:10:46.758Z,101616.06
2022-10-17T17:13:51.444Z,101622.59
2022-10-17T17:16:54.490Z,101627.72
2022-10-17T17:19:57.427Z,101606.28
2022-10-17T17:23:00.833Z,101604.09
2022-10-17T17:26:06.920Z,101604.59
2022-10-17T17:29:12.124Z,101605.41
2022-10-17T17:32:15.087Z,101608.19
2022-10-17T17:35:18.726Z,101607.38
2022-10-17T17:38:21.894Z,101616.53
2022-10-17T17:41:25.765Z,101619.72
2022-10-17T17:44:30.111Z,101621.81
2022-10-17T17:47:33.409Z,101621.50
2022-10-17T17:50:38.283Z,101614.41
2022-10-17T17:53:41.786Z,101618.66
2022-10-17T17:56:44.757Z,101623.06
2022-10-17T17:59:49.769Z,101617.34
2022-10-17T18:02:52.832Z,101618.63
2022-10-17T18:05:55.986Z,101612.06
2022-10-17T18:09:01.316Z,101625.06
2022-10-17T18:12:04.516Z,101626.56
2022-10-17T18:15:10.033Z,101625.16
2022-10-17T18:18:13.659Z,101624.28
2022-10-17T18:21:16.836Z,101613.69
2022-10-17T18:24:19.810Z,101620.44
2022-10-17T18:27:22.770Z,101622.69
2022-10-17T18:30:28.920Z,101608.78
2022-10-17T18:33:36.063Z,101612.47
2022-10-17T18:36:39.256Z,101612.03
2022-10-17T18:39:42.527Z,101613.38
2022-10-17T18:42:45.465Z,101608.75
2022-10-17T18:45:49.714Z,101619.78
2022-10-17T18:48:53.070Z,101600.91
2022-10-17T18:51:56.031Z,101611.22
2022-10-17T18:54:59.052Z,101607.75
2022-10-17T18:58:02.047Z,101610.38
2022-10-17T19:01:09.487Z,101609.69
2022-10-17T19:04:13.317Z,101622.38
2022-10-17T19:07:17.022Z,101609.59
2022-10-17T19:10:19.999Z,101612.81
2022-10-17T19:13:23.059Z,101618.44
2022-10-17T19:16:30.594Z,101603.88
2022-10-17T19:19:33.711Z,101598.28
2022-10-17T19:22:36.615Z,101609.03
2022-10-17T19:25:41.584Z,101592.78
2022-10-17T19:28:45.200Z,101598.88
2022-10-17T19:31:50.133Z,101594.44
2022-10-17T19:34:53.095Z,101594.09
2022-10-17T19:37:57.238Z,101593.97
2022-10-17T19:44:08.155Z,101586.47
2022-10-17T19:47:12.395Z,101591.50
2022-10-17T19:50:15.634Z,101602.03
2022-10-17T19:53:18.882Z,101609.44
2022-10-17T19:56:23.464Z,101613.75
2022-10-17T19:59:26.565Z,101611.69
2022-10-17T20:02:31.024Z,101615.56
2022-10-17T20:05:34.200Z,101621.28
2022-10-17T20:08:38.314Z,101620.00
2022-10-17T20:11:41.231Z,101610.66
2022-10-17T20:14:44.138Z,101619.50
2022-10-17T20:17:48.669Z,101624.50
2022-10-17T20:20:51.890Z,101615.78
2022-10-17T20:23:55.954Z,101617.81
2022-10-17T20:26:59.275Z,101613.78
2022-10-17T20:30:02.470Z,101626.19
2022-10-17T20:33:06.871Z,101617.81
2022-10-17T20:36:13.490Z,101618.53
2022-10-17T20:39:19.297Z,101617.72
2022-10-17T20:42:22.218Z,101617.34
2022-10-17T20:45:37.571Z,101623.31
2022-10-17T20:48:52.477Z,101631.53
2022-10-17T20:51:55.785Z,101630.56
2022-10-17T20:54:58.713Z,101637.50
2022-10-17T20:58:01.712Z,101642.97
2022-10-17T21:01:09.011Z,101650.34
2022-10-17T21:04:43.978Z,101643.28
2022-10-17T21:07:36.472Z,101644.59
2022-10-17T21:10:39.564Z,101644.59
2022-10-17T21:13:43.155Z,101640.50
2022-10-17T21:16:46.121Z,101650.28
2022-10-17T21:19:50.377Z,101652.09
2022-10-17T21:22:53.372Z,101653.38
2022-10-17T21:26:00.430Z,101660.41
2022-10-17T21:29:05.744Z,101661.59
2022-10-17T21:32:19.572Z,101666.22
2022-10-17T21:35:35.239Z,101660.38
2022-10-17T21:38:39.541Z,101663.00
2022-10-17T21:41:43.596Z,101669.28
2022-10-17T21:44:46.636Z,101666.06
2022-10-17T21:48:11.615Z,101667.00
2022-10-17T21:51:16.354Z,101671.66
2022-10-17T21:54:22.835Z,101672.50
2022-10-17T21:57:25.750Z,101684.66
2022-10-17T22:00:28.687Z,101685.31
2022-10-17T22:03:34.574Z,101688.38
2022-10-17T22:06:41.383Z,101698.16
2022-10-17T22:09:44.362Z,101697.41
2022-10-17T22:12:48.580Z,101695.03
2022-10-17T22:15:51.538Z,101690.75
2022-10-17T22:19:00.519Z,101687.38
2022-10-17T22:22:07.595Z,101693.56
2022-10-17T22:25:10.820Z,101694.28
2022-10-17T22:28:13.723Z,101690.25
2022-10-17T22:31:16.827Z,101685.91
2022-10-17T22:34:20.344Z,101673.66
2022-10-17T22:37:25.003Z,101678.56
2022-10-17T22:40:27.961Z,101674.50
2022-10-17T22:43:31.053Z,101670.47
2022-10-17T22:46:34.137Z,101669.91
2022-10-17T22:49:37.065Z,101673.72
2022-10-17T22:52:41.315Z,101676.00
2022-10-17T22:55:44.261Z,101676.56
2022-10-17T22:58:47.523Z,101668.38
2022-10-17T23:01:50.684Z,101676.22
2022-10-17T23:04:54.094Z,101678.63
2022-10-17T23:07:58.340Z,101668.13
2022-10-17T23:11:01.480Z,101666.44
2022-10-17T23:14:04.402Z,101670.25
2022-10-17T23:17:07.809Z,101674.88
2022-10-17T23:20:11.799Z,101670.25
2022-10-17T23:23:16.460Z,101662.03
2022-10-17T23:26:19.916Z,101662.88
2022-10-17T23:29:23.986Z,101662.53
2022-10-17T23:32:27.039Z,101662.94
2022-10-17T23:35:29.990Z,101674.75
2022-10-17T23:38:34.273Z,101666.56
2022-10-17T23:41:37.187Z,101664.16
2022-10-17T23:44:40.277Z,101655.22
2022-10-17T23:47:43.191Z,101663.72
2022-10-17T23:50:46.354Z,101663.59
2022-10-17T23:53:51.139Z,101668.72
2022-10-17T23:56:56.191Z,101660.63
2022-10-17T23:59:59.119Z,101663.25
